createdAt,value
2023-01-01T00:04:59.468Z,6.43
2023-01-01T00:11:09.195Z,5.07
2023-01-01T00:17:18.448Z,5.53
2023-01-01T00:23:22.859Z,5.68
2023-01-01T00:29:37.204Z,5.65
2023-01-01T00:35:41.942Z,5.40
2023-01-01T00:41:57.728Z,5.70
2023-01-01T00:48:03.498Z,5.40
2023-01-01T00:54:06.098Z,5.60
2023-01-01T01:00:09.212Z,6.10
2023-01-01T01:06:15.987Z,5.70
2023-01-01T01:12:25.781Z,4.97
2023-01-01T01:18:28.182Z,4.18
2023-01-01T01:24:33.341Z,4.45
2023-01-01T01:30:39.003Z,4.20
2023-01-01T01:36:48.889Z,4.03
2023-01-01T01:42:52.025Z,3.63
2023-01-01T01:48:58.795Z,4.00
2023-01-01T01:55:02.393Z,4.35
2023-01-01T02:01:06.393Z,4.13
2023-01-01T02:07:13.595Z,4.40
2023-01-01T02:13:21.538Z,4.60
2023-01-01T02:19:54.816Z,4.53
2023-01-01T02:26:24.968Z,4.25
2023-01-01T02:32:37.004Z,4.93
2023-01-01T02:38:47.332Z,4.57
2023-01-01T02:44:53.953Z,5.10
2023-01-01T02:51:01.777Z,4.53
2023-01-01T02:57:18.735Z,4.75
2023-01-01T03:03:48.353Z,5.47
2023-01-01T03:10:21.030Z,5.28
2023-01-01T03:16:59.489Z,6.60
2023-01-01T03:23:10.692Z,6.50
2023-01-01T03:29:15.099Z,6.50
2023-01-01T03:35:24.569Z,6.20
2023-01-01T03:41:52.566Z,6.97
2023-01-01T03:47:55.552Z,7.72
2023-01-01T03:54:01.596Z,8.05
2023-01-01T04:00:16.668Z,7.82
2023-01-01T04:06:18.897Z,9.70
2023-01-01T04:12:25.176Z,8.85
2023-01-01T04:18:29.642Z,8.82
2023-01-01T04:24:31.916Z,8.93
2023-01-01T04:36:34.919Z,8.75
2023-01-01T04:42:37.146Z,9.02
2023-01-01T04:48:40.455Z,8.40
2023-01-01T04:54:42.425Z,9.10
2023-01-01T05:00:44.517Z,8.75
2023-01-01T05:06:46.573Z,8.65
2023-01-01T05:12:48.590Z,9.77
2023-01-01T05:18:51.454Z,8.73
2023-01-01T05:24:53.436Z,9.25
2023-01-01T05:30:55.378Z,8.55
2023-01-01T05:36:57.870Z,8.18
2023-01-01T05:43:03.579Z,9.55
2023-01-01T05:49:05.620Z,9.00
2023-01-01T05:55:08.684Z,8.50
2023-01-01T06:01:19.488Z,8.70
2023-01-01T06:07:21.521Z,8.95
2023-01-01T06:13:23.622Z,8.57
2023-01-01T06:19:25.511Z,9.00
2023-01-01T06:25:27.417Z,9.35
2023-01-01T06:31:38.410Z,9.48
2023-01-01T06:37:42.553Z,8.98
2023-01-01T06:43:46.440Z,9.18
2023-01-01T06:49:50.575Z,9.70
2023-01-01T06:55:57.490Z,10.00
2023-01-01T07:01:59.628Z,9.40
2023-01-01T07:08:02.343Z,9.55
2023-01-01T07:14:04.497Z,9.43
2023-01-01T07:20:07.022Z,9.70
2023-01-01T07:26:22.922Z,10.02
2023-01-01T07:32:32.471Z,8.80
2023-01-01T07:38:37.733Z,8.80
2023-01-01T07:44:40.101Z,8.70
2023-01-01T07:50:42.158Z,9.20
2023-01-01T07:56:47.447Z,8.63
2023-01-01T08:02:49.598Z,8.00
2023-01-01T08:08:51.667Z,8.25
2023-01-01T08:14:53.672Z,8.52
2023-01-01T08:20:57.696Z,8.02
2023-01-01T08:26:59.581Z,7.43
2023-01-01T08:33:01.353Z,7.68
2023-01-01T08:39:03.441Z,7.00
2023-01-01T08:45:05.828Z,6.68
2023-01-01T08:51:07.643Z,5.97
2023-01-01T08:57:09.532Z,5.63
2023-01-01T09:03:11.356Z,5.25
2023-01-01T09:09:13.283Z,6.25
2023-01-01T09:15:17.017Z,4.95
2023-01-01T09:21:18.946Z,5.10
2023-01-01T09:27:20.749Z,4.85
2023-01-01T09:33:22.670Z,5.30
2023-01-01T09:39:24.443Z,4.80
2023-01-01T09:45:35.963Z,4.30
2023-01-01T09:51:48.752Z,4.75
2023-01-01T09:57:54.402Z,4.30
2023-01-01T10:04:34.260Z,3.75
2023-01-01T10:10:45.058Z,3.45
2023-01-01T10:16:51.281Z,3.60
2023-01-01T10:22:58.173Z,3.67
2023-01-01T10:29:05.473Z,3.75
2023-01-01T10:35:14.569Z,3.80
2023-01-01T10:41:19.943Z,4.10
2023-01-01T10:47:29.933Z,4.88
2023-01-01T10:53:42.552Z,4.18
2023-01-01T10:59:51.831Z,3.90
2023-01-01T11:06:13.846Z,3.65
2023-01-01T11:12:54.735Z,3.90
2023-01-01T11:18:44.767Z,3.63
2023-01-01T11:25:00.672Z,3.63
2023-01-01T11:31:17.151Z,4.03
2023-01-01T11:37:39.171Z,3.67
2023-01-01T11:43:45.360Z,3.22
2023-01-01T11:49:53.009Z,3.47
2023-01-01T11:56:17.308Z,3.65
2023-01-01T12:02:36.932Z,3.70
2023-01-01T12:08:48.529Z,3.13
2023-01-01T12:15:15.306Z,3.17
2023-01-01T12:21:17.133Z,3.20
2023-01-01T12:27:27.387Z,3.00
2023-01-01T12:33:53.580Z,2.55
2023-01-01T12:39:59.440Z,3.23
2023-01-01T12:46:16.075Z,3.40
2023-01-01T12:52:30.206Z,3.20
2023-01-01T12:58:54.408Z,3.15
2023-01-01T13:05:27.114Z,3.03
2023-01-01T13:11:29.199Z,2.83
2023-01-01T13:17:30.989Z,2.92
2023-01-01T13:23:34.506Z,2.75
2023-01-01T13:29:44.316Z,3.67
2023-01-01T13:35:46.575Z,2.55
2023-01-01T13:41:49.163Z,2.97
2023-01-01T13:48:35.326Z,2.80
2023-01-01T13:55:00.132Z,2.80
2023-01-01T14:01:34.400Z,2.97
2023-01-01T14:07:53.240Z,2.80
2023-01-01T14:13:55.992Z,3.33
2023-01-01T14:19:59.718Z,2.58
2023-01-01T14:26:07.990Z,2.70
2023-01-01T14:32:16.387Z,2.87
2023-01-01T14:38:30.020Z,3.17
2023-01-01T14:44:38.373Z,2.80
2023-01-01T14:50:41.774Z,3.00
2023-01-01T14:56:49.032Z,3.05
2023-01-01T15:02:51.841Z,3.10
2023-01-01T15:08:54.498Z,3.00
2023-01-01T15:14:58.330Z,3.20
2023-01-01T15:21:01.383Z,3.25
2023-01-01T15:27:08.522Z,3.00
2023-01-01T15:33:17.148Z,2.83
2023-01-01T15:39:20.010Z,3.35
2023-01-01T15:45:35.075Z,2.58
2023-01-01T15:51:40.714Z,3.17
2023-01-01T15:57:48.565Z,3.03
2023-01-01T16:04:02.149Z,2.53
2023-01-01T16:10:05.012Z,2.90
2023-01-01T16:16:25.882Z,2.85
2023-01-01T16:22:31.902Z,2.90
2023-01-01T16:28:38.539Z,2.40
2023-01-01T16:34:40.705Z,2.80
2023-01-01T16:40:43.227Z,2.85
2023-01-01T16:46:45.641Z,3.03
2023-01-01T16:52:48.321Z,2.90
2023-01-01T16:58:54.187Z,2.85
2023-01-01T17:05:00.801Z,3.38
2023-01-01T17:11:15.857Z,2.97
2023-01-01T17:17:18.394Z,2.92
2023-01-01T17:23:21.312Z,3.08
2023-01-01T17:29:26.139Z,3.30
2023-01-01T17:35:33.172Z,3.08
2023-01-01T17:41:36.668Z,3.13
2023-01-01T17:47:39.481Z,3.20
2023-01-01T17:53:43.035Z,3.58
2023-01-01T17:59:46.151Z,2.85
2023-01-01T18:05:48.691Z,3.35
2023-01-01T18:11:51.263Z,3.58
2023-01-01T18:17:53.338Z,3.10
2023-01-01T18:23:57.218Z,3.35
2023-01-01T18:29:59.637Z,3.33
2023-01-01T18:36:14.062Z,3.72
2023-01-01T18:42:39.611Z,3.28
2023-01-01T18:48:42.933Z,2.97
2023-01-01T18:54:45.941Z,3.17
2023-01-01T19:00:49.921Z,3.10
2023-01-01T19:06:53.331Z,3.10
2023-01-01T19:12:57.343Z,3.17
2023-01-01T19:19:20.427Z,3.15
2023-01-01T19:25:38.171Z,3.08
2023-01-01T19:31:41.405Z,3.30
2023-01-01T19:37:44.174Z,2.80
2023-01-01T19:43:46.926Z,3.20
2023-01-01T19:49:55.239Z,2.70
2023-01-01T19:55:58.031Z,2.90
2023-01-01T20:02:35.049Z,3.15
2023-01-01T20:08:23.481Z,3.15
2023-01-01T20:14:26.273Z,3.17
2023-01-01T20:20:29.195Z,2.92
2023-01-01T20:26:32.077Z,2.97
2023-01-01T20:32:34.486Z,2.97
2023-01-01T20:38:40.419Z,3.38
2023-01-01T20:44:44.196Z,3.00
2023-01-01T20:50:47.446Z,3.08
2023-01-01T20:56:50.262Z,3.47
2023-01-01T21:02:53.671Z,3.60
2023-01-01T21:08:56.702Z,3.90
2023-01-01T21:15:01.126Z,3.40
2023-01-01T21:21:10.021Z,3.95
2023-01-01T21:27:19.683Z,3.78
2023-01-01T21:33:32.948Z,4.10
2023-01-01T21:39:35.734Z,4.35
2023-01-01T21:45:40.832Z,4.30
2023-01-01T21:51:48.708Z,4.35
2023-01-01T21:58:13.978Z,4.50
2023-01-01T22:04:21.549Z,4.40
2023-01-01T22:10:27.099Z,4.65
2023-01-01T22:16:31.415Z,4.57
2023-01-01T22:22:34.938Z,4.13
2023-01-01T22:28:42.818Z,4.22
2023-01-01T22:34:45.464Z,4.55
2023-01-01T22:40:50.333Z,4.60
2023-01-01T22:46:53.584Z,3.95
2023-01-01T22:52:57.315Z,4.45
2023-01-01T22:59:00.642Z,4.63
2023-01-01T23:05:02.555Z,4.13
2023-01-01T23:11:04.877Z,4.22
2023-01-01T23:17:07.818Z,4.25
2023-01-01T23:23:11.463Z,4.53
2023-01-01T23:29:14.586Z,4.40
2023-01-01T23:35:16.683Z,3.60
2023-01-01T23:41:19.250Z,4.00
2023-01-01T23:47:22.310Z,3.40
2023-01-01T23:53:25.316Z,3.67
2023-01-01T23:59:28.617Z,4.10
